createdAt,value
2018-11-05T00:00:05.212Z,12.09
2018-11-05T00:00:45.775Z,12.12
2018-11-05T00:01:26.321Z,12.09
2018-11-05T00:02:06.885Z,12.12
2018-11-05T00:02:47.470Z,12.04
2018-11-05T00:03:28.028Z,12.17
2018-11-05T00:04:08.583Z,12.07
2018-11-05T00:04:49.173Z,12.18
2018-11-05T00:05:29.815Z,12.15
2018-11-05T00:06:10.387Z,12.12
2018-11-05T00:06:50.939Z,12.12
2018-11-05T00:07:31.500Z,12.1
2018-11-05T00:08:12.085Z,12.13
2018-11-05T00:08:52.636Z,12.15
2018-11-05T00:09:33.193Z,12.13
2018-11-05T00:10:13.754Z,12.2
2018-11-05T00:10:54.322Z,12.13
2018-11-05T00:11:34.878Z,12.13
2018-11-05T00:12:15.441Z,12.12
2018-11-05T00:12:55.997Z,12.12
2018-11-05T00:13:36.565Z,12.2
2018-11-05T00:14:17.117Z,12.09
2018-11-05T00:14:57.672Z,12.13
2018-11-05T00:15:38.227Z,12.12
2018-11-05T00:16:18.778Z,12.13
2018-11-05T00:16:59.337Z,12.13
2018-11-05T00:17:39.881Z,12.22
2018-11-05T00:18:20.459Z,12.2
2018-11-05T00:19:01.033Z,12.13
2018-11-05T00:19:41.638Z,12.15
2018-11-05T00:20:22.208Z,12.15
2018-11-05T00:21:02.778Z,12.18
2018-11-05T00:21:43.347Z,12.13
2018-11-05T00:22:23.901Z,12.12
2018-11-05T00:23:04.459Z,12.13
2018-11-05T00:23:45.007Z,12.15
2018-11-05T00:24:25.604Z,12.18
2018-11-05T00:25:06.171Z,12.15
2018-11-05T00:25:46.765Z,12.15
2018-11-05T00:26:27.309Z,12.1
2018-11-05T00:27:07.873Z,12.12
2018-11-05T00:27:48.419Z,12.15
2018-11-05T00:28:28.994Z,12.15
2018-11-05T00:29:09.552Z,12.15
2018-11-05T00:29:50.120Z,12.13
2018-11-05T00:30:30.694Z,12.15
2018-11-05T00:31:11.243Z,12.13
2018-11-05T00:31:51.820Z,12.15
2018-11-05T00:32:32.373Z,12.15
2018-11-05T00:33:12.914Z,12.2
2018-11-05T00:33:53.498Z,12.15
2018-11-05T00:34:34.049Z,12.15
2018-11-05T00:35:14.618Z,12.18
2018-11-05T00:35:55.310Z,12.15
2018-11-05T00:36:35.862Z,12.17
2018-11-05T00:37:16.418Z,12.17
2018-11-05T00:37:56.981Z,12.13
2018-11-05T00:38:37.535Z,12.15
2018-11-05T00:39:18.081Z,12.15
2018-11-05T00:39:58.632Z,12.09
2018-11-05T00:40:39.202Z,12.18
2018-11-05T00:41:19.777Z,12.12
2018-11-05T00:42:00.332Z,12.12
2018-11-05T00:42:40.890Z,12.12
2018-11-05T00:43:21.451Z,12.12
2018-11-05T00:44:02.019Z,12.1
2018-11-05T00:44:42.572Z,12.02
2018-11-05T00:45:23.194Z,12.04
2018-11-05T00:46:03.687Z,12
2018-11-05T00:46:44.244Z,11.94
2018-11-05T00:47:24.803Z,11.97
2018-11-05T00:48:05.398Z,12.02
2018-11-05T00:48:45.975Z,12.04
2018-11-05T00:49:26.522Z,12.02
2018-11-05T00:50:07.068Z,12.1
2018-11-05T00:50:47.623Z,12
2018-11-05T00:51:28.197Z,11.99
2018-11-05T00:52:08.747Z,11.99
2018-11-05T00:52:49.296Z,11.95
2018-11-05T00:53:29.847Z,12.02
2018-11-05T00:54:10.412Z,11.99
2018-11-05T00:54:50.965Z,11.97
2018-11-05T00:55:31.534Z,12
2018-11-05T00:56:12.092Z,11.95
2018-11-05T00:56:52.658Z,12.03
2018-11-05T00:57:33.233Z,12
2018-11-05T00:58:13.788Z,12
2018-11-05T00:58:54.511Z,12.06
2018-11-05T00:59:35.073Z,11.97
2018-11-05T01:00:15.641Z,11.95
2018-11-05T01:00:56.371Z,12.1
2018-11-05T01:01:37.129Z,12.02
2018-11-05T01:02:17.485Z,12.02
2018-11-05T01:02:58.081Z,12.02
2018-11-05T01:03:38.661Z,12.02
2018-11-05T01:04:19.224Z,11.94
2018-11-05T01:04:59.764Z,12.03
2018-11-05T01:05:40.332Z,12.06
2018-11-05T01:06:20.882Z,12.06
2018-11-05T01:07:01.527Z,11.94
2018-11-05T01:07:42.131Z,11.95
2018-11-05T01:08:22.685Z,11.99
2018-11-05T01:09:03.225Z,12
2018-11-05T01:09:43.834Z,12
2018-11-05T01:10:24.387Z,12
2018-11-05T01:11:04.976Z,11.95
2018-11-05T01:11:45.539Z,12.02
2018-11-05T01:12:26.092Z,12.02
2018-11-05T01:13:06.995Z,12.03
2018-11-05T01:13:47.589Z,12
2018-11-05T01:14:28.155Z,12.06
2018-11-05T01:15:08.698Z,12.13
2018-11-05T01:15:49.268Z,12.09
2018-11-05T01:16:29.897Z,12.09
2018-11-05T01:17:10.462Z,12.15
2018-11-05T01:17:51.102Z,12.13
2018-11-05T01:18:31.692Z,12.06
2018-11-05T01:19:12.229Z,12.03
2018-11-05T01:19:52.761Z,12.06
2018-11-05T01:20:33.406Z,12.12
2018-11-05T01:21:14.061Z,12.09
2018-11-05T01:21:54.633Z,12.09
2018-11-05T01:22:35.185Z,12.09
2018-11-05T01:23:15.746Z,11.95
2018-11-05T01:23:56.296Z,11.97
2018-11-05T01:24:36.919Z,12.07
2018-11-05T01:25:17.506Z,12
2018-11-05T01:25:58.053Z,11.97
2018-11-05T01:26:38.589Z,12.02
2018-11-05T01:27:19.158Z,11.99
2018-11-05T01:27:59.760Z,12
2018-11-05T01:28:40.359Z,12.07
2018-11-05T01:29:20.885Z,11.99
2018-11-05T01:30:01.491Z,12
2018-11-05T01:30:42.050Z,12.03
2018-11-05T01:31:22.600Z,12.04
2018-11-05T01:32:03.160Z,11.97
2018-11-05T01:32:43.961Z,11.95
2018-11-05T01:33:24.561Z,11.88
2018-11-05T01:34:05.198Z,12
2018-11-05T01:34:45.801Z,12.03
2018-11-05T01:35:26.347Z,12.03
2018-11-05T01:36:06.921Z,11.99
2018-11-05T01:36:47.510Z,11.99
2018-11-05T01:37:28.074Z,12.02
2018-11-05T01:38:08.684Z,12
2018-11-05T01:38:49.222Z,12.02
2018-11-05T01:39:29.807Z,12
2018-11-05T01:40:10.351Z,12.02
2018-11-05T01:40:51.034Z,12.09
2018-11-05T01:41:31.608Z,11.97
2018-11-05T01:42:12.166Z,12
2018-11-05T01:42:52.717Z,11.97
2018-11-05T01:43:33.267Z,12.12
2018-11-05T01:44:13.920Z,12.04
2018-11-05T01:44:54.486Z,12.12
2018-11-05T01:45:35.038Z,12.13
2018-11-05T01:46:15.599Z,12.15
2018-11-05T01:46:56.157Z,12.13
2018-11-05T01:47:36.710Z,12.17
2018-11-05T01:48:17.269Z,12.15
2018-11-05T01:48:57.833Z,12.12
2018-11-05T01:49:38.408Z,12.2
2018-11-05T01:50:18.973Z,12.15
2018-11-05T01:50:59.576Z,12.12
2018-11-05T01:51:40.133Z,12.15
2018-11-05T01:52:20.695Z,12.17
2018-11-05T01:53:01.290Z,12.15
2018-11-05T01:53:41.840Z,12.17
2018-11-05T01:54:22.394Z,12.09
2018-11-05T01:55:02.956Z,12.17
2018-11-05T01:55:43.517Z,12.1
2018-11-05T01:56:24.073Z,12.17
2018-11-05T01:57:04.626Z,12.17
2018-11-05T01:57:45.205Z,12.15
2018-11-05T01:58:25.768Z,12.13
2018-11-05T01:59:06.335Z,12.12
2018-11-05T01:59:46.885Z,12.17
2018-11-05T02:00:27.442Z,12.13
2018-11-05T02:01:07.980Z,12.17
2018-11-05T02:01:48.542Z,12.12
2018-11-05T02:02:29.098Z,12.15
2018-11-05T02:03:09.650Z,12.17
2018-11-05T02:03:50.208Z,12.13
2018-11-05T02:04:30.786Z,12.13
2018-11-05T02:05:11.436Z,12.15
2018-11-05T02:05:52.015Z,12.15
2018-11-05T02:06:32.580Z,12.13
2018-11-05T02:07:13.218Z,12.13
2018-11-05T02:07:53.724Z,12.13
2018-11-05T02:08:34.310Z,12.12
2018-11-05T02:09:14.874Z,12.12
2018-11-05T02:09:55.428Z,12.13
2018-11-05T02:10:36.024Z,12.18
2018-11-05T02:11:16.558Z,12.18
2018-11-05T02:11:57.118Z,12.18
2018-11-05T02:12:37.665Z,12.15
2018-11-05T02:13:18.289Z,12.12
2018-11-05T02:13:58.787Z,12.15
2018-11-05T02:14:39.351Z,12.18
2018-11-05T02:15:19.935Z,12.13
2018-11-05T02:16:00.571Z,12.13
2018-11-05T02:16:41.110Z,12.15
2018-11-05T02:17:21.673Z,12.12
2018-11-05T02:18:02.235Z,12.15
2018-11-05T02:18:42.791Z,12.13
2018-11-05T02:19:23.403Z,12.22
2018-11-05T02:20:03.971Z,12.1
2018-11-05T02:20:44.542Z,12.12
2018-11-05T02:21:25.093Z,12.17
2018-11-05T02:22:05.657Z,12.17
2018-11-05T02:22:46.209Z,12.07
2018-11-05T02:23:26.771Z,12.13
2018-11-05T02:24:07.374Z,12.2
2018-11-05T02:24:47.909Z,12.09
2018-11-05T02:25:28.463Z,12.21
2018-11-05T02:26:09.023Z,12.1
2018-11-05T02:26:49.588Z,12.2
2018-11-05T02:27:30.144Z,12.1
2018-11-05T02:28:10.692Z,12.13
2018-11-05T02:28:51.239Z,12.12
2018-11-05T02:29:31.793Z,12.13
2018-11-05T02:30:12.352Z,12.2
2018-11-05T02:30:52.965Z,12.13
2018-11-05T02:31:33.474Z,12.12
2018-11-05T02:32:14.046Z,12.13
2018-11-05T02:32:54.607Z,12.18
2018-11-05T02:33:35.187Z,12.1
2018-11-05T02:34:15.750Z,12.17
2018-11-05T02:34:56.312Z,12.2
2018-11-05T02:35:36.929Z,12.17
2018-11-05T02:36:17.488Z,12.1
2018-11-05T02:36:58.072Z,12.24
2018-11-05T02:37:38.633Z,12.17
2018-11-05T02:38:19.216Z,12.21
2018-11-05T02:38:59.773Z,12.1
2018-11-05T02:39:40.324Z,12.13
2018-11-05T02:40:20.896Z,12.17
2018-11-05T02:41:01.499Z,12.24
2018-11-05T02:41:42.088Z,12.2
2018-11-05T02:42:22.650Z,12.22
2018-11-05T02:43:03.210Z,12.2
2018-11-05T02:43:43.784Z,12.1
2018-11-05T02:44:24.334Z,12.15
2018-11-05T02:45:04.910Z,12.15
2018-11-05T02:45:45.473Z,12.17
2018-11-05T02:46:26.039Z,12.18
2018-11-05T02:47:06.639Z,12.15
2018-11-05T02:47:47.155Z,12.1
2018-11-05T02:48:27.701Z,12.17
2018-11-05T02:49:08.248Z,12.12
2018-11-05T02:49:48.809Z,12.15
2018-11-05T02:50:29.381Z,12.1
2018-11-05T02:51:09.991Z,12.07
2018-11-05T02:51:50.513Z,12.2
2018-11-05T02:52:31.144Z,12.2
2018-11-05T02:53:11.628Z,12.17
2018-11-05T02:53:52.196Z,12.15
2018-11-05T02:54:33.046Z,12.15
2018-11-05T02:55:13.595Z,12.1
2018-11-05T02:55:54.141Z,12.09
2018-11-05T02:56:34.707Z,12.13
2018-11-05T02:57:15.276Z,12.13
2018-11-05T02:57:55.863Z,12.15
2018-11-05T02:58:36.437Z,12.15
2018-11-05T02:59:17.003Z,12.18
2018-11-05T02:59:57.569Z,12.2
2018-11-05T03:00:38.123Z,12.15
2018-11-05T03:01:18.671Z,12.09
2018-11-05T03:01:59.233Z,12.18
2018-11-05T03:02:39.820Z,12.17
2018-11-05T03:03:20.577Z,12.07
2018-11-05T03:04:00.998Z,12.03
2018-11-05T03:04:41.577Z,12.12
2018-11-05T03:05:22.139Z,12.09
2018-11-05T03:06:02.704Z,12.06
2018-11-05T03:06:43.265Z,12.13
2018-11-05T03:07:23.810Z,12.12
2018-11-05T03:08:04.399Z,12.2
2018-11-05T03:08:44.951Z,12.1
2018-11-05T03:09:25.515Z,12.12
2018-11-05T03:10:06.075Z,12.1
2018-11-05T03:10:46.715Z,12.13
2018-11-05T03:11:27.273Z,12.2
2018-11-05T03:12:07.846Z,12.18
2018-11-05T03:12:48.406Z,12.13
2018-11-05T03:13:29.046Z,12.2
2018-11-05T03:14:09.599Z,12.15
2018-11-05T03:14:50.177Z,12.18
2018-11-05T03:15:30.787Z,12.2
2018-11-05T03:16:11.340Z,12.13
2018-11-05T03:16:51.889Z,12.15
2018-11-05T03:17:32.512Z,12.15
2018-11-05T03:18:13.073Z,12.13
2018-11-05T03:18:53.644Z,12.12
2018-11-05T03:19:34.206Z,12.17
2018-11-05T03:20:14.756Z,12.1
2018-11-05T03:20:55.300Z,12.17
2018-11-05T03:21:35.864Z,12.2
2018-11-05T03:22:16.421Z,12.2
2018-11-05T03:22:56.972Z,12.2
2018-11-05T03:23:37.654Z,12.13
2018-11-05T03:24:18.237Z,12.09
2018-11-05T03:24:58.801Z,12.15
2018-11-05T03:25:39.375Z,12.22
2018-11-05T03:26:19.946Z,12.18
2018-11-05T03:27:00.501Z,12.15
2018-11-05T03:27:41.085Z,12.18
2018-11-05T03:28:21.666Z,12.07
2018-11-05T03:29:02.233Z,12.2
2018-11-05T03:29:42.830Z,12.17
2018-11-05T03:30:23.391Z,12.1
2018-11-05T03:31:03.956Z,12.15
2018-11-05T03:31:44.551Z,12.21
2018-11-05T03:32:25.122Z,12.1
2018-11-05T03:33:05.670Z,12.06
2018-11-05T03:33:46.229Z,12.07
2018-11-05T03:34:26.784Z,12.1
2018-11-05T03:35:07.341Z,12.2
2018-11-05T03:35:47.999Z,12.15
2018-11-05T03:36:28.472Z,12.17
2018-11-05T03:37:09.022Z,12.06
2018-11-05T03:37:49.582Z,12.15
2018-11-05T03:38:30.163Z,12.12
2018-11-05T03:39:10.707Z,12.2
2018-11-05T03:39:51.278Z,12.2
2018-11-05T03:40:31.852Z,12.09
2018-11-05T03:41:12.433Z,12.21
2018-11-05T03:41:52.986Z,12.15
2018-11-05T03:42:33.528Z,12.22
2018-11-05T03:43:14.105Z,12.21
2018-11-05T03:43:54.667Z,12.28
2018-11-05T03:44:35.229Z,12.24
2018-11-05T03:45:15.802Z,12.22
2018-11-05T03:45:56.362Z,12.2
2018-11-05T03:46:36.922Z,12.17
2018-11-05T03:47:17.492Z,12.18
2018-11-05T03:47:58.059Z,12.21
2018-11-05T03:48:38.627Z,12.07
2018-11-05T03:49:19.266Z,12.12
2018-11-05T03:49:59.815Z,12.15
2018-11-05T03:50:40.390Z,12.21
2018-11-05T03:51:20.968Z,12.27
2018-11-05T03:52:01.525Z,12.17
2018-11-05T03:52:42.096Z,12.21
2018-11-05T03:53:22.667Z,12.18
2018-11-05T03:54:03.237Z,12.12
2018-11-05T03:54:43.792Z,12.21
2018-11-05T03:55:24.363Z,12.2
2018-11-05T03:56:05.014Z,12.24
2018-11-05T03:56:45.638Z,12.13
2018-11-05T03:57:26.078Z,12.13
2018-11-05T03:58:06.638Z,12.18
2018-11-05T03:58:47.180Z,12.28
2018-11-05T03:59:27.739Z,12.27
2018-11-05T04:00:08.284Z,12.29
2018-11-05T04:00:48.842Z,12.28
2018-11-05T04:01:29.401Z,12.21
2018-11-05T04:02:09.955Z,12.25
2018-11-05T04:02:50.510Z,12.22
2018-11-05T04:03:31.237Z,12.18
2018-11-05T04:04:11.644Z,12.2
2018-11-05T04:04:52.195Z,12.24
2018-11-05T04:05:32.776Z,12.27
2018-11-05T04:06:13.410Z,12.21
2018-11-05T04:06:53.996Z,12.17
2018-11-05T04:07:34.558Z,12.2
2018-11-05T04:08:15.116Z,12.27
2018-11-05T04:08:55.674Z,12.12
2018-11-05T04:09:36.235Z,12.25
2018-11-05T04:10:16.794Z,12.24
2018-11-05T04:10:57.344Z,12.25
2018-11-05T04:11:37.902Z,12.27
2018-11-05T04:12:18.459Z,12.22
2018-11-05T04:12:59.024Z,12.24
2018-11-05T04:13:39.614Z,12.12
2018-11-05T04:14:20.181Z,12.22
2018-11-05T04:15:00.754Z,12.2
2018-11-05T04:15:41.569Z,12.27
2018-11-05T04:16:21.865Z,12.2
2018-11-05T04:17:02.420Z,12.25
2018-11-05T04:17:42.971Z,12.27
2018-11-05T04:18:23.533Z,12.28
2018-11-05T04:19:04.084Z,12.17
2018-11-05T04:19:44.645Z,12.18
2018-11-05T04:20:25.198Z,12.15
2018-11-05T04:21:05.765Z,12.2
2018-11-05T04:21:46.328Z,12.15
2018-11-05T04:22:26.898Z,12.15
2018-11-05T04:23:07.450Z,12.15
2018-11-05T04:23:48.012Z,12.2
2018-11-05T04:24:28.592Z,12.15
2018-11-05T04:25:09.144Z,12.21
2018-11-05T04:25:49.726Z,12.2
2018-11-05T04:26:30.297Z,12.24
2018-11-05T04:27:10.848Z,12.22
2018-11-05T04:27:51.526Z,12.15
2018-11-05T04:28:31.994Z,12.21
2018-11-05T04:29:12.555Z,12.27
2018-11-05T04:29:53.131Z,12.22
2018-11-05T04:30:33.690Z,12.24
2018-11-05T04:31:14.258Z,12.24
2018-11-05T04:31:54.811Z,12.21
2018-11-05T04:32:35.385Z,12.22
2018-11-05T04:33:15.936Z,12.25
2018-11-05T04:33:56.481Z,12.21
2018-11-05T04:34:37.034Z,12.17
2018-11-05T04:35:17.604Z,12.18
2018-11-05T04:35:58.177Z,12.24
2018-11-05T04:36:38.742Z,12.2
2018-11-05T04:37:19.310Z,12.21
2018-11-05T04:37:59.886Z,12.27
2018-11-05T04:38:40.456Z,12.2
2018-11-05T04:39:21.003Z,12.17
2018-11-05T04:40:01.553Z,12.25
2018-11-05T04:40:42.106Z,12.28
2018-11-05T04:41:22.692Z,12.2
2018-11-05T04:42:03.259Z,12.27
2018-11-05T04:42:43.816Z,12.21
2018-11-05T04:43:24.374Z,12.24
2018-11-05T04:44:04.956Z,12.24
2018-11-05T04:44:45.535Z,12.24
2018-11-05T04:45:26.090Z,12.24
2018-11-05T04:46:06.699Z,12.12
2018-11-05T04:46:47.268Z,12.21
2018-11-05T04:47:27.820Z,12.18
2018-11-05T04:48:08.376Z,12.21
2018-11-05T04:48:48.975Z,12.22
2018-11-05T04:49:29.537Z,12.15
2018-11-05T04:50:10.097Z,12.15
2018-11-05T04:50:50.660Z,12.2
2018-11-05T04:51:31.220Z,12.24
2018-11-05T04:52:11.762Z,12.25
2018-11-05T04:52:52.323Z,12.21
2018-11-05T04:53:32.877Z,12.13
2018-11-05T04:54:13.424Z,12.18
2018-11-05T04:54:53.984Z,12.15
2018-11-05T04:55:34.539Z,12.17
2018-11-05T04:56:15.089Z,12.2
2018-11-05T04:56:55.651Z,12.09
2018-11-05T04:57:36.222Z,12.13
2018-11-05T04:58:16.782Z,12.12
2018-11-05T04:58:57.348Z,12.12
2018-11-05T04:59:37.900Z,12.1
2018-11-05T05:00:18.474Z,12.13
2018-11-05T05:00:59.021Z,12.13
2018-11-05T05:01:39.569Z,12.15
2018-11-05T05:02:20.120Z,12.15
2018-11-05T05:03:00.670Z,12.1
2018-11-05T05:03:41.236Z,12.17
2018-11-05T05:04:21.805Z,12.15
2018-11-05T05:05:02.348Z,12.13
2018-11-05T05:05:42.890Z,12.1
2018-11-05T05:06:23.441Z,12.1
2018-11-05T05:07:03.986Z,12.18
2018-11-05T05:07:44.543Z,12.2
2018-11-05T05:08:25.097Z,12.17
2018-11-05T05:09:05.655Z,12.2
2018-11-05T05:09:46.217Z,12.15
2018-11-05T05:10:26.789Z,12.15
2018-11-05T05:11:07.355Z,12.12
2018-11-05T05:11:47.891Z,12.17
2018-11-05T05:12:28.478Z,12.15
2018-11-05T05:13:09.088Z,12.15
2018-11-05T05:13:49.651Z,12.18
2018-11-05T05:14:30.201Z,12.12
2018-11-05T05:15:10.763Z,12.12
2018-11-05T05:15:51.341Z,12.18
2018-11-05T05:16:31.933Z,12.13
2018-11-05T05:17:12.491Z,12.12
2018-11-05T05:17:53.049Z,12.2
2018-11-05T05:18:33.595Z,12.15
2018-11-05T05:19:14.164Z,12.12
2018-11-05T05:19:54.733Z,12.18
2018-11-05T05:20:35.290Z,12.07
2018-11-05T05:21:15.847Z,12.07
2018-11-05T05:21:56.410Z,12.09
2018-11-05T05:22:37.102Z,12
2018-11-05T05:23:17.533Z,12.07
2018-11-05T05:23:58.091Z,12.09
2018-11-05T05:24:38.652Z,11.99
2018-11-05T05:25:19.203Z,11.95
2018-11-05T05:25:59.780Z,11.95
2018-11-05T05:26:40.355Z,12
2018-11-05T05:27:20.916Z,11.99
2018-11-05T05:28:01.621Z,11.97
2018-11-05T05:28:42.196Z,12.04
2018-11-05T05:29:22.773Z,11.99
2018-11-05T05:30:03.334Z,11.99
2018-11-05T05:30:43.885Z,12
2018-11-05T05:31:24.454Z,11.95
2018-11-05T05:32:05.012Z,12.02
2018-11-05T05:32:45.606Z,12.06
2018-11-05T05:33:26.158Z,12.1
2018-11-05T05:34:06.681Z,11.97
2018-11-05T05:34:47.241Z,12.02
2018-11-05T05:35:27.817Z,11.99
2018-11-05T05:36:08.368Z,12.04
2018-11-05T05:36:48.930Z,11.95
2018-11-05T05:37:29.480Z,12.07
2018-11-05T05:38:10.035Z,12
2018-11-05T05:38:50.591Z,12.07
2018-11-05T05:39:31.148Z,12
2018-11-05T05:40:11.714Z,12.07
2018-11-05T05:40:52.374Z,11.95
2018-11-05T05:41:32.843Z,12.02
2018-11-05T05:42:13.389Z,12.02
2018-11-05T05:42:53.959Z,12
2018-11-05T05:43:34.524Z,12.03
2018-11-05T05:44:15.120Z,11.94
2018-11-05T05:44:55.659Z,12
2018-11-05T05:45:36.219Z,12.1
2018-11-05T05:46:16.772Z,12.04
2018-11-05T05:46:57.333Z,11.99
2018-11-05T05:47:37.882Z,12.1
2018-11-05T05:48:18.449Z,12.02
2018-11-05T05:48:59.003Z,12.09
2018-11-05T05:49:39.641Z,12.09
2018-11-05T05:50:20.316Z,12.15
2018-11-05T05:51:00.754Z,12.07
2018-11-05T05:51:41.342Z,12.09
2018-11-05T05:52:21.905Z,12.07
2018-11-05T05:53:02.480Z,12.1
2018-11-05T05:53:43.044Z,11.99
2018-11-05T05:54:23.608Z,12.02
2018-11-05T05:55:04.157Z,12.09
2018-11-05T05:55:44.728Z,11.97
2018-11-05T05:56:25.407Z,11.97
2018-11-05T05:57:05.970Z,12.04
2018-11-05T05:57:46.520Z,11.95
2018-11-05T05:58:27.085Z,12.04
2018-11-05T05:59:07.642Z,12.02
2018-11-05T05:59:48.305Z,12
2018-11-05T06:00:28.827Z,12
2018-11-05T06:01:09.378Z,12.1
2018-11-05T06:01:49.931Z,11.99
2018-11-05T06:02:30.497Z,11.97
2018-11-05T06:03:11.053Z,12.06
2018-11-05T06:03:51.600Z,12.03
2018-11-05T06:04:32.169Z,12.07
2018-11-05T06:05:12.746Z,12
2018-11-05T06:05:53.354Z,11.99
2018-11-05T06:06:33.954Z,12.04
2018-11-05T06:07:14.425Z,12
2018-11-05T06:07:54.964Z,12.07
2018-11-05T06:08:35.518Z,11.99
2018-11-05T06:09:16.066Z,12.04
2018-11-05T06:09:56.630Z,11.91
2018-11-05T06:10:37.195Z,11.99
2018-11-05T06:11:17.760Z,12.04
2018-11-05T06:11:58.334Z,12.03
2018-11-05T06:12:38.930Z,12
2018-11-05T06:13:19.480Z,11.99
2018-11-05T06:14:00.052Z,12
2018-11-05T06:14:40.600Z,12.02
2018-11-05T06:15:21.156Z,12.1
2018-11-05T06:16:01.929Z,12.09
2018-11-05T06:16:42.302Z,12.13
2018-11-05T06:17:22.870Z,12.02
2018-11-05T06:18:03.442Z,12.07
2018-11-05T06:18:43.989Z,12.09
2018-11-05T06:19:24.543Z,12
2018-11-05T06:20:05.087Z,12.02
2018-11-05T06:20:45.651Z,11.97
2018-11-05T06:21:26.229Z,12.02
2018-11-05T06:22:06.796Z,12.02
2018-11-05T06:22:47.371Z,12.02
2018-11-05T06:23:27.932Z,11.99
2018-11-05T06:24:08.490Z,12
2018-11-05T06:24:49.043Z,12.06
2018-11-05T06:25:29.600Z,11.94
2018-11-05T06:26:10.233Z,12
2018-11-05T06:26:50.805Z,11.99
2018-11-05T06:27:31.355Z,12
2018-11-05T06:28:11.919Z,11.99
2018-11-05T06:28:52.506Z,11.95
2018-11-05T06:29:33.063Z,11.99
2018-11-05T06:30:13.620Z,12.09
2018-11-05T06:30:54.180Z,11.94
2018-11-05T06:31:34.730Z,11.97
2018-11-05T06:32:15.292Z,12.06
2018-11-05T06:32:55.840Z,12.03
2018-11-05T06:33:36.868Z,11.99
2018-11-05T06:34:17.463Z,11.97
2018-11-05T06:34:58.023Z,12
2018-11-05T06:35:38.592Z,12
2018-11-05T06:36:19.153Z,11.97
2018-11-05T06:36:59.709Z,12.03
2018-11-05T06:37:40.308Z,12.04
2018-11-05T06:38:20.941Z,12.02
2018-11-05T06:39:01.504Z,12.03
2018-11-05T06:39:42.084Z,11.95
2018-11-05T06:40:22.632Z,12.06
2018-11-05T06:41:03.214Z,12
2018-11-05T06:41:43.816Z,12.03
2018-11-05T06:42:24.292Z,12.02
2018-11-05T06:43:04.859Z,12
2018-11-05T06:43:45.402Z,11.95
2018-11-05T06:44:25.982Z,12.02
2018-11-05T06:45:06.570Z,11.97
2018-11-05T06:45:47.137Z,12.03
2018-11-05T06:46:27.719Z,12.06
2018-11-05T06:47:08.270Z,11.95
2018-11-05T06:47:48.855Z,12
2018-11-05T06:48:29.430Z,11.97
2018-11-05T06:49:09.969Z,12
2018-11-05T06:49:50.529Z,12.1
2018-11-05T06:50:31.149Z,12
2018-11-05T06:51:11.721Z,11.97
2018-11-05T06:51:52.304Z,11.97
2018-11-05T06:52:32.907Z,11.99
2018-11-05T06:53:13.453Z,11.99
2018-11-05T06:53:54.067Z,11.95
2018-11-05T06:54:34.700Z,12
2018-11-05T06:55:15.268Z,11.99
2018-11-05T06:55:55.821Z,11.97
2018-11-05T06:56:36.381Z,12.02
2018-11-05T06:57:16.984Z,12.09
2018-11-05T06:57:57.573Z,12.02
2018-11-05T06:58:38.144Z,11.99
2018-11-05T06:59:18.703Z,12.1
2018-11-05T06:59:59.272Z,12.13
2018-11-05T07:00:39.837Z,12.12
2018-11-05T07:01:20.424Z,12.1
2018-11-05T07:02:01.001Z,12.07
2018-11-05T07:02:41.564Z,12.04
2018-11-05T07:03:22.129Z,12.15
2018-11-05T07:04:02.696Z,12.12
2018-11-05T07:04:43.283Z,12.13
2018-11-05T07:05:23.877Z,12.2
2018-11-05T07:06:04.471Z,12.1
2018-11-05T07:06:45.041Z,12.13
2018-11-05T07:07:25.603Z,12.18
2018-11-05T07:08:06.203Z,12.17
2018-11-05T07:08:46.782Z,12.2
2018-11-05T07:09:27.346Z,12.15
2018-11-05T07:10:08.016Z,12.18
2018-11-05T07:10:48.557Z,12.1
2018-11-05T07:11:29.222Z,12.18
2018-11-05T07:12:09.743Z,12.12
2018-11-05T07:12:50.289Z,12.04
2018-11-05T07:13:30.840Z,12.13
2018-11-05T07:14:11.404Z,12.12
2018-11-05T07:14:51.989Z,12.13
2018-11-05T07:15:32.554Z,12.09
2018-11-05T07:16:13.131Z,12.03
2018-11-05T07:16:53.726Z,12.02
2018-11-05T07:17:34.352Z,11.97
2018-11-05T07:18:15.074Z,12
2018-11-05T07:18:55.625Z,12.02
2018-11-05T07:19:36.212Z,12.09
2018-11-05T07:20:16.641Z,12.06
2018-11-05T07:20:57.219Z,11.99
2018-11-05T07:21:37.832Z,12.02
2018-11-05T07:22:18.377Z,11.99
2018-11-05T07:22:58.973Z,11.97
2018-11-05T07:23:39.534Z,12.04
2018-11-05T07:24:20.101Z,11.99
2018-11-05T07:25:01.301Z,12.02
2018-11-05T07:25:41.656Z,12.04
2018-11-05T07:26:22.212Z,12
2018-11-05T07:27:02.830Z,12.03
2018-11-05T07:27:43.453Z,11.94
2018-11-05T07:28:24.016Z,11.87
2018-11-05T07:29:04.575Z,12.02
2018-11-05T07:29:45.140Z,11.97
2018-11-05T07:30:25.712Z,11.94
2018-11-05T07:31:06.271Z,11.95
2018-11-05T07:31:46.835Z,11.95
2018-11-05T07:32:27.409Z,11.94
2018-11-05T07:33:07.996Z,11.91
2018-11-05T07:33:48.794Z,11.91
2018-11-05T07:34:29.244Z,11.91
2018-11-05T07:35:09.682Z,11.95
2018-11-05T07:35:50.258Z,11.95
2018-11-05T07:36:30.851Z,11.91
2018-11-05T07:37:11.405Z,11.95
2018-11-05T07:37:52.024Z,11.88
2018-11-05T07:38:32.579Z,11.97
2018-11-05T07:39:13.141Z,11.9
2018-11-05T07:39:53.705Z,11.94
2018-11-05T07:40:34.277Z,11.99
2018-11-05T07:41:14.841Z,11.97
2018-11-05T07:41:55.392Z,11.94
2018-11-05T07:42:35.949Z,11.91
2018-11-05T07:43:16.537Z,11.91
2018-11-05T07:43:57.102Z,11.95
2018-11-05T07:44:37.671Z,11.91
2018-11-05T07:45:18.237Z,12.04
2018-11-05T07:45:58.799Z,11.95
2018-11-05T07:46:39.374Z,11.99
2018-11-05T07:47:19.965Z,11.9
2018-11-05T07:48:00.532Z,11.9
2018-11-05T07:48:41.105Z,12
2018-11-05T07:49:21.677Z,11.95
2018-11-05T07:50:02.271Z,12.04
2018-11-05T07:50:42.894Z,11.91
2018-11-05T07:51:23.347Z,12.06
2018-11-05T07:52:03.911Z,12
2018-11-05T07:52:44.477Z,11.99
2018-11-05T07:53:25.052Z,11.97
2018-11-05T07:54:05.607Z,11.97
2018-11-05T07:54:46.214Z,12
2018-11-05T07:55:26.789Z,11.97
2018-11-05T07:56:07.375Z,12.07
2018-11-05T07:56:47.976Z,12.09
2018-11-05T07:57:28.480Z,12.12
2018-11-05T07:58:09.057Z,12.18
2018-11-05T07:58:49.652Z,12.09
2018-11-05T07:59:30.209Z,12.1
2018-11-05T08:00:10.800Z,12.07
2018-11-05T08:00:51.373Z,11.99
2018-11-05T08:01:31.947Z,12.07
2018-11-05T08:02:12.565Z,12
2018-11-05T08:02:53.249Z,12
2018-11-05T08:03:33.699Z,12.02
2018-11-05T08:04:14.263Z,12.02
2018-11-05T08:04:54.886Z,12.06
2018-11-05T08:05:35.468Z,11.95
2018-11-05T08:06:16.039Z,12
2018-11-05T08:06:56.581Z,12.02
2018-11-05T08:07:37.159Z,11.99
2018-11-05T08:08:17.760Z,11.99
2018-11-05T08:08:58.343Z,11.99
2018-11-05T08:09:38.892Z,11.99
2018-11-05T08:10:19.445Z,12.04
2018-11-05T08:10:59.993Z,12.02
2018-11-05T08:11:40.589Z,12.02
2018-11-05T08:12:21.152Z,12.04
2018-11-05T08:13:01.719Z,11.99
2018-11-05T08:13:42.284Z,12
2018-11-05T08:14:23.010Z,12.04
2018-11-05T08:15:03.412Z,12.02
2018-11-05T08:15:44.004Z,11.95
2018-11-05T08:16:24.566Z,12.09
2018-11-05T08:17:05.170Z,12.02
2018-11-05T08:17:45.757Z,11.99
2018-11-05T08:18:26.320Z,12.03
2018-11-05T08:19:06.909Z,12.12
2018-11-05T08:19:47.478Z,12.07
2018-11-05T08:20:28.038Z,12.03
2018-11-05T08:21:08.595Z,12.13
2018-11-05T08:21:49.174Z,12.1
2018-11-05T08:22:29.757Z,12.02
2018-11-05T08:23:10.347Z,12.17
2018-11-05T08:23:50.950Z,12.15
2018-11-05T08:24:31.503Z,12.13
2018-11-05T08:25:12.100Z,12.12
2018-11-05T08:25:52.765Z,12.12
2018-11-05T08:26:33.307Z,12.17
2018-11-05T08:27:13.867Z,12.07
2018-11-05T08:27:55.286Z,12.15
2018-11-05T08:28:35.851Z,12.13
2018-11-05T08:29:16.450Z,12.15
2018-11-05T08:29:57.046Z,12.12
2018-11-05T08:30:37.591Z,12.18
2018-11-05T08:31:18.150Z,12.12
2018-11-05T08:31:58.779Z,12.18
2018-11-05T08:32:39.342Z,12.2
2018-11-05T08:33:19.896Z,12.12
2018-11-05T08:34:00.524Z,12.09
2018-11-05T08:34:41.041Z,12.1
2018-11-05T08:35:21.620Z,12.12
2018-11-05T08:36:02.175Z,12.2
2018-11-05T08:36:42.749Z,12.1
2018-11-05T08:37:23.327Z,12.07
2018-11-05T08:38:03.868Z,12.13
2018-11-05T08:38:44.494Z,12.17
2018-11-05T08:39:25.047Z,12.2
2018-11-05T08:40:05.616Z,12.24
2018-11-05T08:40:46.201Z,12.2
2018-11-05T08:41:26.752Z,12.2
2018-11-05T08:42:07.309Z,12.2
2018-11-05T08:42:47.866Z,12.21
2018-11-05T08:43:28.422Z,12.22
2018-11-05T08:44:08.996Z,12.22
2018-11-05T08:44:49.570Z,12.29
2018-11-05T08:45:30.114Z,12.36
2018-11-05T08:46:10.659Z,12.32
2018-11-05T08:46:51.315Z,12.36
2018-11-05T08:47:31.773Z,12.42